createdAt,value
2017-10-23T00:00:04.658Z,1006.86
2017-10-23T00:01:05.274Z,1006.90
2017-10-23T00:02:05.906Z,1006.86
2017-10-23T00:03:06.534Z,1006.82
2017-10-23T00:04:07.127Z,1006.83
2017-10-23T00:05:07.724Z,1006.82
2017-10-23T00:06:08.334Z,1006.88
2017-10-23T00:07:08.937Z,1006.88
2017-10-23T00:08:09.548Z,1006.89
2017-10-23T00:09:10.176Z,1006.88
2017-10-23T00:10:10.759Z,1006.85
2017-10-23T00:11:11.369Z,1006.84
2017-10-23T00:12:11.994Z,1006.81
2017-10-23T00:13:12.587Z,1006.87
2017-10-23T00:14:13.179Z,1006.89
2017-10-23T00:15:13.790Z,1006.86
2017-10-23T00:16:14.387Z,1006.81
2017-10-23T00:17:15.000Z,1006.91
2017-10-23T00:18:15.610Z,1006.87
2017-10-23T00:19:16.208Z,1006.86
2017-10-23T00:20:16.813Z,1006.84
2017-10-23T00:21:17.423Z,1006.81
2017-10-23T00:22:18.032Z,1006.82
2017-10-23T00:23:18.638Z,1006.80
2017-10-23T00:24:19.242Z,1006.79
2017-10-23T00:25:19.851Z,1006.84
2017-10-23T00:26:20.458Z,1006.82
2017-10-23T00:27:21.059Z,1006.86
2017-10-23T00:28:21.663Z,1006.87
2017-10-23T00:29:22.252Z,1006.88
2017-10-23T00:30:22.857Z,1006.90
2017-10-23T00:31:23.463Z,1006.91
2017-10-23T00:32:24.063Z,1006.96
2017-10-23T00:33:24.658Z,1006.94
2017-10-23T00:34:25.257Z,1006.93
2017-10-23T00:35:25.864Z,1006.93
2017-10-23T00:36:26.475Z,1006.96
2017-10-23T00:37:27.087Z,1006.95
2017-10-23T00:38:27.697Z,1006.99
2017-10-23T00:39:28.316Z,1006.97
2017-10-23T00:40:28.909Z,1006.97
2017-10-23T00:41:29.513Z,1007.01
2017-10-23T00:42:30.117Z,1006.99
2017-10-23T00:43:30.721Z,1007.05
2017-10-23T00:44:31.331Z,1007.04
2017-10-23T00:45:31.925Z,1007.06
2017-10-23T00:46:32.524Z,1007.11
2017-10-23T00:47:33.129Z,1007.08
2017-10-23T00:48:33.728Z,1007.09
2017-10-23T00:49:34.333Z,1007.10
2017-10-23T00:50:34.947Z,1007.05
2017-10-23T00:51:35.539Z,1007.06
2017-10-23T00:52:36.153Z,1007.12
2017-10-23T00:53:36.770Z,1007.11
2017-10-23T00:54:37.356Z,1007.10
2017-10-23T00:55:37.964Z,1007.18
2017-10-23T00:56:38.564Z,1007.16
2017-10-23T00:57:39.161Z,1007.15
2017-10-23T00:58:39.766Z,1007.16
2017-10-23T00:59:40.356Z,1007.19
2017-10-23T01:00:40.967Z,1007.22
2017-10-23T01:01:41.560Z,1007.24
2017-10-23T01:02:42.157Z,1007.21
2017-10-23T01:03:42.770Z,1007.21
2017-10-23T01:04:43.377Z,1007.27
2017-10-23T01:05:43.984Z,1007.26
2017-10-23T01:06:44.592Z,1007.28
2017-10-23T01:07:45.197Z,1007.27
2017-10-23T01:08:45.797Z,1007.28
2017-10-23T01:09:46.393Z,1007.29
2017-10-23T01:10:46.995Z,1007.28
2017-10-23T01:11:47.604Z,1007.28
2017-10-23T01:12:48.199Z,1007.31
2017-10-23T01:13:48.799Z,1007.30
2017-10-23T01:14:49.406Z,1007.30
2017-10-23T01:15:50.014Z,1007.30
2017-10-23T01:16:50.613Z,1007.24
2017-10-23T01:17:51.209Z,1007.29
2017-10-23T01:18:51.808Z,1007.23
2017-10-23T01:19:52.415Z,1007.25
2017-10-23T01:20:53.017Z,1007.26
2017-10-23T01:21:53.623Z,1007.29
2017-10-23T01:22:54.242Z,1007.28
2017-10-23T01:23:54.841Z,1007.26
2017-10-23T01:24:55.448Z,1007.25
2017-10-23T01:25:56.056Z,1007.30
2017-10-23T01:26:56.660Z,1007.29
2017-10-23T01:27:57.270Z,1007.30
2017-10-23T01:28:57.867Z,1007.25
2017-10-23T01:29:58.463Z,1007.31
2017-10-23T01:30:59.072Z,1007.30
2017-10-23T01:31:59.679Z,1007.28
2017-10-23T01:33:00.288Z,1007.28
2017-10-23T01:34:00.897Z,1007.25
2017-10-23T01:35:01.499Z,1007.25
2017-10-23T01:36:02.098Z,1007.24
2017-10-23T01:37:02.702Z,1007.25
2017-10-23T01:38:03.308Z,1007.25
2017-10-23T01:39:03.911Z,1007.27
2017-10-23T01:40:04.519Z,1007.23
2017-10-23T01:41:05.116Z,1007.21
2017-10-23T01:42:05.715Z,1007.27
2017-10-23T01:43:06.309Z,1007.26
2017-10-23T01:44:06.907Z,1007.26
2017-10-23T01:45:07.499Z,1007.27
2017-10-23T01:46:08.091Z,1007.25
2017-10-23T01:47:08.702Z,1007.30
2017-10-23T01:48:09.294Z,1007.22
2017-10-23T01:49:09.909Z,1007.25
2017-10-23T01:50:10.498Z,1007.27
2017-10-23T01:51:11.132Z,1007.25
2017-10-23T01:52:11.713Z,1007.30
2017-10-23T01:53:12.317Z,1007.33
2017-10-23T01:54:12.920Z,1007.31
2017-10-23T01:55:13.516Z,1007.33
2017-10-23T01:56:14.114Z,1007.34
2017-10-23T01:57:14.736Z,1007.33
2017-10-23T01:58:15.319Z,1007.33
2017-10-23T01:59:15.920Z,1007.32
2017-10-23T02:00:16.523Z,1007.29
2017-10-23T02:01:17.127Z,1007.29
2017-10-23T02:02:17.739Z,1007.29
2017-10-23T02:03:18.345Z,1007.31
2017-10-23T02:04:18.937Z,1007.27
2017-10-23T02:05:19.542Z,1007.30
2017-10-23T02:06:20.146Z,1007.30
2017-10-23T02:07:20.771Z,1007.27
2017-10-23T02:08:21.355Z,1007.29
2017-10-23T02:09:21.960Z,1007.26
2017-10-23T02:10:22.569Z,1007.23
2017-10-23T02:11:23.170Z,1007.25
2017-10-23T02:12:23.780Z,1007.26
2017-10-23T02:13:24.386Z,1007.31
2017-10-23T02:14:24.982Z,1007.25
2017-10-23T02:15:25.583Z,1007.30
2017-10-23T02:16:26.194Z,1007.29
2017-10-23T02:17:26.791Z,1007.24
2017-10-23T02:18:27.402Z,1007.29
2017-10-23T02:19:28.012Z,1007.27
2017-10-23T02:20:28.607Z,1007.27
2017-10-23T02:21:29.212Z,1007.29
2017-10-23T02:22:29.806Z,1007.30
2017-10-23T02:23:30.414Z,1007.27
2017-10-23T02:24:31.014Z,1007.29
2017-10-23T02:25:31.610Z,1007.34
2017-10-23T02:26:32.212Z,1007.31
2017-10-23T02:27:32.810Z,1007.29
2017-10-23T02:28:33.408Z,1007.29
2017-10-23T02:29:34.015Z,1007.29
2017-10-23T02:30:34.612Z,1007.30
2017-10-23T02:31:35.218Z,1007.35
2017-10-23T02:32:35.832Z,1007.35
2017-10-23T02:33:36.433Z,1007.36
2017-10-23T02:34:37.038Z,1007.39
2017-10-23T02:35:37.636Z,1007.41
2017-10-23T02:36:38.236Z,1007.44
2017-10-23T02:37:38.833Z,1007.43
2017-10-23T02:38:39.433Z,1007.40
2017-10-23T02:39:40.023Z,1007.39
2017-10-23T02:40:40.619Z,1007.38
2017-10-23T02:41:41.224Z,1007.36
2017-10-23T02:42:41.816Z,1007.42
2017-10-23T02:43:42.411Z,1007.40
2017-10-23T02:44:43.009Z,1007.37
2017-10-23T02:45:43.610Z,1007.40
2017-10-23T02:46:44.201Z,1007.38
2017-10-23T02:47:44.809Z,1007.39
2017-10-23T02:48:45.410Z,1007.36
2017-10-23T02:49:46.019Z,1007.38
2017-10-23T02:50:46.610Z,1007.40
2017-10-23T02:51:47.212Z,1007.41
2017-10-23T02:52:47.816Z,1007.40
2017-10-23T02:53:48.425Z,1007.40
2017-10-23T02:54:49.029Z,1007.43
2017-10-23T02:55:49.647Z,1007.39
2017-10-23T02:56:50.233Z,1007.40
2017-10-23T02:57:50.831Z,1007.42
2017-10-23T02:58:51.427Z,1007.42
2017-10-23T02:59:52.036Z,1007.40
2017-10-23T03:00:52.644Z,1007.39
2017-10-23T03:01:53.250Z,1007.34
2017-10-23T03:02:53.845Z,1007.38
2017-10-23T03:03:54.428Z,1007.39
2017-10-23T03:04:55.034Z,1007.37
2017-10-23T03:05:55.637Z,1007.39
2017-10-23T03:06:56.235Z,1007.46
2017-10-23T03:07:56.826Z,1007.39
2017-10-23T03:08:57.430Z,1007.44
2017-10-23T03:09:58.034Z,1007.42
2017-10-23T03:10:58.639Z,1007.44
2017-10-23T03:11:59.244Z,1007.48
2017-10-23T03:12:59.885Z,1007.51
2017-10-23T03:14:00.469Z,1007.53
2017-10-23T03:15:01.075Z,1007.50
2017-10-23T03:16:01.682Z,1007.56
2017-10-23T03:17:02.285Z,1007.55
2017-10-23T03:18:02.890Z,1007.61
2017-10-23T03:19:03.500Z,1007.58
2017-10-23T03:20:04.097Z,1007.56
2017-10-23T03:21:04.706Z,1007.57
2017-10-23T03:22:05.326Z,1007.63
2017-10-23T03:23:05.932Z,1007.63
2017-10-23T03:24:06.552Z,1007.68
2017-10-23T03:25:07.162Z,1007.66
2017-10-23T03:26:07.765Z,1007.67
2017-10-23T03:27:08.375Z,1007.69
2017-10-23T03:28:08.972Z,1007.70
2017-10-23T03:29:09.583Z,1007.74
2017-10-23T03:30:10.182Z,1007.78
2017-10-23T03:31:10.796Z,1007.79
2017-10-23T03:32:11.392Z,1007.78
2017-10-23T03:33:11.994Z,1007.80
2017-10-23T03:34:12.601Z,1007.84
2017-10-23T03:35:13.213Z,1007.81
2017-10-23T03:36:13.816Z,1007.83
2017-10-23T03:37:14.413Z,1007.82
2017-10-23T03:38:15.026Z,1007.82
2017-10-23T03:39:15.626Z,1007.81
2017-10-23T03:40:16.230Z,1007.80
2017-10-23T03:41:16.843Z,1007.88
2017-10-23T03:42:17.451Z,1007.80
2017-10-23T03:43:18.055Z,1007.86
2017-10-23T03:44:18.660Z,1007.83
2017-10-23T03:45:19.257Z,1007.84
2017-10-23T03:46:19.855Z,1007.85
2017-10-23T03:47:20.461Z,1007.86
2017-10-23T03:48:21.066Z,1007.85
2017-10-23T03:49:21.671Z,1007.83
2017-10-23T03:50:22.287Z,1007.80
2017-10-23T03:51:22.874Z,1007.90
2017-10-23T03:52:23.475Z,1007.88
2017-10-23T03:53:24.069Z,1007.90
2017-10-23T03:54:24.673Z,1007.97
2017-10-23T03:55:25.275Z,1007.93
2017-10-23T03:56:25.881Z,1007.96
2017-10-23T03:57:26.479Z,1007.99
2017-10-23T03:58:27.076Z,1008.01
2017-10-23T03:59:27.678Z,1007.98
2017-10-23T04:00:28.281Z,1008.08
2017-10-23T04:01:28.879Z,1008.07
2017-10-23T04:02:29.481Z,1008.05
2017-10-23T04:03:30.068Z,1008.05
2017-10-23T04:04:30.679Z,1008.08
2017-10-23T04:05:31.286Z,1008.06
2017-10-23T04:06:31.884Z,1008.14
2017-10-23T04:07:32.488Z,1008.14
2017-10-23T04:08:33.092Z,1008.11
2017-10-23T04:09:33.697Z,1008.14
2017-10-23T04:10:34.299Z,1008.13
2017-10-23T04:11:34.908Z,1008.17
2017-10-23T04:12:35.543Z,1008.12
2017-10-23T04:13:36.109Z,1008.09
2017-10-23T04:14:36.713Z,1008.13
2017-10-23T04:15:37.313Z,1008.15
2017-10-23T04:16:37.921Z,1008.17
2017-10-23T04:17:38.529Z,1008.16
2017-10-23T04:18:39.121Z,1008.14
2017-10-23T04:19:39.728Z,1008.17
2017-10-23T04:20:40.335Z,1008.15
2017-10-23T04:21:40.942Z,1008.17
2017-10-23T04:22:41.550Z,1008.15
2017-10-23T04:23:42.154Z,1008.21
2017-10-23T04:24:42.764Z,1008.15
2017-10-23T04:25:43.379Z,1008.06
2017-10-23T04:26:43.968Z,1008.19
2017-10-23T04:27:44.567Z,1008.16
2017-10-23T04:28:45.163Z,1008.14
2017-10-23T04:29:45.771Z,1008.14
2017-10-23T04:30:46.384Z,1008.16
2017-10-23T04:31:46.976Z,1008.17
2017-10-23T04:32:47.581Z,1008.13
2017-10-23T04:33:48.184Z,1008.17
2017-10-23T04:34:48.792Z,1008.17
2017-10-23T04:35:49.392Z,1008.18
2017-10-23T04:36:49.999Z,1008.24
2017-10-23T04:37:50.603Z,1008.22
2017-10-23T04:38:51.200Z,1008.12
2017-10-23T04:39:51.804Z,1008.10
2017-10-23T04:40:52.409Z,1008.16
2017-10-23T04:41:53.022Z,1008.19
2017-10-23T04:42:53.618Z,1008.21
2017-10-23T04:43:54.216Z,1008.23
2017-10-23T04:44:54.815Z,1008.22
2017-10-23T04:45:55.410Z,1008.21
2017-10-23T04:46:56.022Z,1008.18
2017-10-23T04:47:56.623Z,1008.19
2017-10-23T04:48:57.238Z,1008.17
2017-10-23T04:49:57.828Z,1008.18
2017-10-23T04:50:58.432Z,1008.19
2017-10-23T04:51:59.028Z,1008.18
2017-10-23T04:52:59.624Z,1008.18
2017-10-23T04:54:00.226Z,1008.25
2017-10-23T04:55:00.830Z,1008.21
2017-10-23T04:56:01.434Z,1008.23
2017-10-23T04:57:02.034Z,1008.18
2017-10-23T04:58:02.632Z,1008.23
2017-10-23T04:59:03.231Z,1008.20
2017-10-23T05:00:03.824Z,1008.23
2017-10-23T05:01:04.423Z,1008.22
2017-10-23T05:02:05.028Z,1008.23
2017-10-23T05:03:05.625Z,1008.23
2017-10-23T05:04:06.240Z,1008.21
2017-10-23T05:05:06.835Z,1008.16
2017-10-23T05:06:07.446Z,1008.17
2017-10-23T05:07:08.057Z,1008.14
2017-10-23T05:08:08.664Z,1008.17
2017-10-23T05:09:09.261Z,1008.20
2017-10-23T05:10:09.869Z,1008.15
2017-10-23T05:11:10.472Z,1008.19
2017-10-23T05:12:11.067Z,1008.18
2017-10-23T05:13:11.674Z,1008.13
2017-10-23T05:14:12.274Z,1008.19
2017-10-23T05:15:12.878Z,1008.10
2017-10-23T05:16:13.500Z,1008.07
2017-10-23T05:17:14.093Z,1008.01
2017-10-23T05:18:14.692Z,1008.04
2017-10-23T05:19:15.296Z,1008.03
2017-10-23T05:20:15.903Z,1008.00
2017-10-23T05:21:16.500Z,1008.05
2017-10-23T05:22:17.093Z,1008.08
2017-10-23T05:23:17.721Z,1008.05
2017-10-23T05:24:18.309Z,1008.09
2017-10-23T05:25:18.908Z,1008.06
2017-10-23T05:26:19.513Z,1008.08
2017-10-23T05:27:20.136Z,1008.06
2017-10-23T05:28:20.731Z,1008.04
2017-10-23T05:29:21.341Z,1008.01
2017-10-23T05:30:21.942Z,1008.03
2017-10-23T05:31:22.551Z,1008.01
2017-10-23T05:32:23.148Z,1008.03
2017-10-23T05:33:23.757Z,1008.09
2017-10-23T05:34:24.360Z,1008.01
2017-10-23T05:35:24.963Z,1008.03
2017-10-23T05:36:25.559Z,1008.05
2017-10-23T05:37:26.172Z,1008.03
2017-10-23T05:38:26.777Z,1008.04
2017-10-23T05:39:27.380Z,1008.02
2017-10-23T05:40:27.984Z,1008.02
2017-10-23T05:41:28.592Z,1008.11
2017-10-23T05:42:29.191Z,1008.06
2017-10-23T05:43:29.782Z,1008.11
2017-10-23T05:44:30.387Z,1008.12
2017-10-23T05:45:30.992Z,1008.18
2017-10-23T05:46:31.592Z,1008.19
2017-10-23T05:47:32.184Z,1008.23
2017-10-23T05:48:32.799Z,1008.19
2017-10-23T05:49:33.389Z,1008.24
2017-10-23T05:50:33.989Z,1008.26
2017-10-23T05:51:34.594Z,1008.24
2017-10-23T05:52:35.204Z,1008.29
2017-10-23T05:53:35.809Z,1008.33
2017-10-23T05:54:36.409Z,1008.33
2017-10-23T05:55:37.022Z,1008.35
2017-10-23T05:56:37.635Z,1008.38
2017-10-23T05:57:38.245Z,1008.34
2017-10-23T05:58:38.847Z,1008.36
2017-10-23T05:59:39.461Z,1008.34
2017-10-23T06:00:40.073Z,1008.38
2017-10-23T06:01:40.674Z,1008.35
2017-10-23T06:02:41.278Z,1008.38
2017-10-23T06:03:41.874Z,1008.36
2017-10-23T06:04:42.473Z,1008.36
2017-10-23T06:05:43.077Z,1008.37
2017-10-23T06:06:43.688Z,1008.36
2017-10-23T06:07:44.296Z,1008.40
2017-10-23T06:08:44.902Z,1008.37
2017-10-23T06:09:45.509Z,1008.41
2017-10-23T06:10:46.106Z,1008.45
2017-10-23T06:11:46.716Z,1008.47
2017-10-23T06:12:47.331Z,1008.47
2017-10-23T06:13:47.932Z,1008.53
2017-10-23T06:14:48.536Z,1008.54
2017-10-23T06:15:49.167Z,1008.55
2017-10-23T06:16:49.746Z,1008.58
2017-10-23T06:17:50.365Z,1008.63
2017-10-23T06:18:50.953Z,1008.64
2017-10-23T06:19:51.558Z,1008.62
2017-10-23T06:20:52.161Z,1008.67
2017-10-23T06:21:52.766Z,1008.63
2017-10-23T06:22:53.363Z,1008.69
2017-10-23T06:23:53.975Z,1008.69
2017-10-23T06:24:54.580Z,1008.58
2017-10-23T06:25:55.191Z,1008.65
2017-10-23T06:26:55.791Z,1008.64
2017-10-23T06:27:56.403Z,1008.67
2017-10-23T06:28:57.007Z,1008.61
2017-10-23T06:29:57.615Z,1008.63
2017-10-23T06:30:58.232Z,1008.63
2017-10-23T06:31:58.828Z,1008.63
2017-10-23T06:32:59.434Z,1008.66
2017-10-23T06:34:00.049Z,1008.60
2017-10-23T06:35:00.672Z,1008.65
2017-10-23T06:36:01.252Z,1008.65
2017-10-23T06:37:01.855Z,1008.65
2017-10-23T06:38:02.470Z,1008.65
2017-10-23T06:39:03.073Z,1008.70
2017-10-23T06:40:03.684Z,1008.63
2017-10-23T06:41:04.297Z,1008.67
2017-10-23T06:42:04.911Z,1008.65
2017-10-23T06:43:05.522Z,1008.65
2017-10-23T06:44:06.129Z,1008.64
2017-10-23T06:45:06.769Z,1008.66
2017-10-23T06:46:07.348Z,1008.64
2017-10-23T06:47:07.955Z,1008.66
2017-10-23T06:48:08.550Z,1008.61
2017-10-23T06:49:09.154Z,1008.60
2017-10-23T06:50:09.786Z,1008.60
2017-10-23T06:51:10.372Z,1008.61
2017-10-23T06:52:10.975Z,1008.66
2017-10-23T06:53:11.583Z,1008.66
2017-10-23T06:54:12.227Z,1008.73
2017-10-23T06:55:12.823Z,1008.67
2017-10-23T06:56:13.427Z,1008.74
2017-10-23T06:57:14.029Z,1008.74
2017-10-23T06:58:14.641Z,1008.68
2017-10-23T06:59:15.261Z,1008.69
2017-10-23T07:00:15.865Z,1008.77
2017-10-23T07:01:16.494Z,1008.69
2017-10-23T07:02:17.093Z,1008.66
2017-10-23T07:03:17.699Z,1008.70
2017-10-23T07:04:18.311Z,1008.71
2017-10-23T07:05:18.919Z,1008.69
2017-10-23T07:06:19.552Z,1008.67
2017-10-23T07:07:20.144Z,1008.69
2017-10-23T07:08:20.764Z,1008.70
2017-10-23T07:09:21.358Z,1008.70
2017-10-23T07:10:21.974Z,1008.62
2017-10-23T07:11:22.587Z,1008.73
2017-10-23T07:12:23.195Z,1008.72
2017-10-23T07:13:23.799Z,1008.70
2017-10-23T07:14:24.411Z,1008.77
2017-10-23T07:15:25.026Z,1008.75
2017-10-23T07:16:25.672Z,1008.73
2017-10-23T07:17:26.260Z,1008.71
2017-10-23T07:18:26.884Z,1008.67
2017-10-23T07:19:27.490Z,1008.67
2017-10-23T07:20:28.099Z,1008.66
2017-10-23T07:21:28.715Z,1008.66
2017-10-23T07:22:29.328Z,1008.68
2017-10-23T07:23:29.936Z,1008.66
2017-10-23T07:24:30.543Z,1008.68
2017-10-23T07:25:31.170Z,1008.60
2017-10-23T07:26:31.776Z,1008.72
2017-10-23T07:27:32.382Z,1008.77
2017-10-23T07:28:32.992Z,1008.76
2017-10-23T07:29:33.600Z,1008.64
2017-10-23T07:30:34.211Z,1008.80
2017-10-23T07:31:34.852Z,1008.80
2017-10-23T07:32:35.477Z,1008.78
2017-10-23T07:33:36.089Z,1008.74
2017-10-23T07:34:36.762Z,1008.75
2017-10-23T07:35:37.374Z,1008.74
2017-10-23T07:36:37.990Z,1008.79
2017-10-23T07:37:38.610Z,1008.75
2017-10-23T07:38:39.228Z,1008.75
2017-10-23T07:39:39.844Z,1008.80
2017-10-23T07:40:40.458Z,1008.74
2017-10-23T07:41:41.067Z,1008.76
2017-10-23T07:42:41.682Z,1008.74
2017-10-23T07:43:42.299Z,1008.70
2017-10-23T07:44:42.914Z,1008.73
2017-10-23T07:45:43.520Z,1008.67
2017-10-23T07:46:44.135Z,1008.75
2017-10-23T07:47:44.756Z,1008.70
2017-10-23T07:48:45.370Z,1008.78
2017-10-23T07:49:45.981Z,1008.76
2017-10-23T07:50:46.593Z,1008.72
2017-10-23T07:51:47.213Z,1008.77
2017-10-23T07:52:47.830Z,1008.83
2017-10-23T07:53:48.453Z,1008.81
2017-10-23T07:54:49.070Z,1008.84
2017-10-23T07:55:49.685Z,1008.86
2017-10-23T07:56:50.300Z,1008.82
2017-10-23T07:57:50.911Z,1008.85
2017-10-23T07:58:51.529Z,1008.89
2017-10-23T07:59:52.135Z,1008.87
2017-10-23T08:00:52.753Z,1008.90
2017-10-23T08:01:53.364Z,1008.88
2017-10-23T08:02:53.980Z,1008.82
2017-10-23T08:03:54.592Z,1008.83
2017-10-23T08:04:55.207Z,1008.94
2017-10-23T08:05:55.818Z,1008.87
2017-10-23T08:06:56.433Z,1008.90
2017-10-23T08:07:57.036Z,1008.87
2017-10-23T08:08:57.654Z,1008.91
2017-10-23T08:09:58.270Z,1008.96
2017-10-23T08:10:58.890Z,1008.89
2017-10-23T08:11:59.507Z,1008.93
2017-10-23T08:13:00.130Z,1008.92
2017-10-23T08:14:00.738Z,1008.79
2017-10-23T08:15:01.350Z,1008.91
2017-10-23T08:16:01.968Z,1008.93
2017-10-23T08:17:02.575Z,1008.96
2017-10-23T08:18:03.184Z,1008.98
2017-10-23T08:19:48.010Z,1008.95
2017-10-23T08:20:48.643Z,1008.94
2017-10-23T08:21:49.255Z,1008.95
2017-10-23T08:22:49.871Z,1008.95
2017-10-23T08:23:50.511Z,1009.04
2017-10-23T08:24:51.125Z,1009.03
2017-10-23T08:25:51.742Z,1008.93
2017-10-23T08:26:52.358Z,1008.94
2017-10-23T08:27:52.973Z,1008.95
2017-10-23T08:28:53.588Z,1008.91
2017-10-23T08:29:54.204Z,1008.93
2017-10-23T08:30:54.824Z,1008.92
2017-10-23T08:31:55.436Z,1008.99
2017-10-23T08:32:56.098Z,1009.00
2017-10-23T08:33:56.689Z,1008.96
2017-10-23T08:34:57.301Z,1009.03
2017-10-23T08:35:57.917Z,1009.07
2017-10-23T08:36:58.528Z,1009.05
2017-10-23T08:37:59.152Z,1009.11
2017-10-23T08:38:59.786Z,1009.06
2017-10-23T08:40:00.612Z,1009.05
2017-10-23T08:41:01.223Z,1009.04
2017-10-23T08:42:01.827Z,1009.09
2017-10-23T08:43:02.452Z,1008.99
2017-10-23T08:44:03.075Z,1009.09
2017-10-23T08:45:03.696Z,1009.10
2017-10-23T08:46:04.312Z,1009.13
2017-10-23T08:47:04.956Z,1009.16
2017-10-23T08:48:05.548Z,1009.14
2017-10-23T08:49:06.156Z,1009.17
2017-10-23T08:50:06.772Z,1009.22
2017-10-23T08:51:07.400Z,1009.16
2017-10-23T08:52:08.008Z,1009.19
2017-10-23T08:53:08.616Z,1009.23
2017-10-23T08:54:09.236Z,1009.23
2017-10-23T08:55:09.858Z,1009.21
2017-10-23T08:56:10.485Z,1009.26
2017-10-23T08:57:11.087Z,1009.31
2017-10-23T08:58:11.698Z,1009.29
2017-10-23T08:59:12.320Z,1009.32
2017-10-23T09:00:12.934Z,1009.28
2017-10-23T09:01:13.558Z,1009.31
2017-10-23T09:02:14.182Z,1009.36
2017-10-23T09:03:14.795Z,1009.31
2017-10-23T09:04:15.403Z,1009.21
2017-10-23T09:05:16.029Z,1009.26
2017-10-23T09:06:16.657Z,1009.23
2017-10-23T09:07:17.271Z,1009.19
2017-10-23T09:08:17.894Z,1009.28
2017-10-23T09:09:18.526Z,1009.41
2017-10-23T09:10:19.341Z,1009.33
2017-10-23T09:11:19.984Z,1009.32
2017-10-23T09:12:20.815Z,1009.32
2017-10-23T09:13:21.436Z,1009.32
2017-10-23T09:14:22.045Z,1009.33
2017-10-23T09:15:22.686Z,1009.30
2017-10-23T09:16:23.299Z,1009.27
2017-10-23T09:17:23.918Z,1009.30
2017-10-23T09:18:24.539Z,1009.22
2017-10-23T09:19:25.184Z,1009.25
2017-10-23T09:20:25.775Z,1009.27
2017-10-23T09:21:26.388Z,1009.28
2017-10-23T09:22:27.000Z,1009.31
2017-10-23T09:23:27.613Z,1009.13
2017-10-23T09:24:28.226Z,1009.33
2017-10-23T09:25:28.834Z,1009.34
2017-10-23T09:26:29.455Z,1009.32
2017-10-23T09:27:30.090Z,1009.30
2017-10-23T09:28:30.689Z,1009.24
2017-10-23T09:29:31.295Z,1009.27
2017-10-23T09:30:31.901Z,1009.27
2017-10-23T09:31:32.536Z,1009.28
2017-10-23T09:32:33.160Z,1009.36
2017-10-23T09:33:33.782Z,1009.33
2017-10-23T09:34:34.389Z,1009.27
2017-10-23T09:35:35.017Z,1009.25
2017-10-23T09:36:35.640Z,1009.32
2017-10-23T09:37:36.262Z,1009.25
2017-10-23T09:38:36.876Z,1009.24
2017-10-23T09:39:37.484Z,1009.18
2017-10-23T09:40:38.102Z,1009.29
2017-10-23T09:41:38.724Z,1009.29
2017-10-23T09:42:39.352Z,1009.39
2017-10-23T09:43:39.973Z,1009.33
2017-10-23T09:44:40.588Z,1009.39
2017-10-23T09:45:41.196Z,1009.39
2017-10-23T09:46:41.814Z,1009.36
2017-10-23T09:47:42.426Z,1009.30
2017-10-23T09:48:43.039Z,1009.35
2017-10-23T09:49:43.656Z,1009.39
2017-10-23T09:50:44.285Z,1009.43
2017-10-23T09:51:44.887Z,1009.45
2017-10-23T09:52:45.498Z,1009.39
2017-10-23T09:53:46.118Z,1009.52
2017-10-23T09:54:46.729Z,1009.52
2017-10-23T09:55:47.353Z,1009.47
2017-10-23T09:56:47.971Z,1009.44
2017-10-23T09:57:48.581Z,1009.54
2017-10-23T09:58:49.201Z,1009.51
2017-10-23T09:59:49.827Z,1009.53
2017-10-23T10:00:50.452Z,1009.61
2017-10-23T10:01:51.089Z,1009.52
2017-10-23T10:02:51.719Z,1009.53
2017-10-23T10:03:52.349Z,1009.55
2017-10-23T10:04:52.986Z,1009.45
2017-10-23T10:05:53.603Z,1009.51
2017-10-23T10:06:54.541Z,1009.49
2017-10-23T10:07:55.059Z,1009.59
2017-10-23T10:08:55.695Z,1009.49
2017-10-23T10:09:56.303Z,1009.54
2017-10-23T10:10:56.922Z,1009.58
2017-10-23T10:11:57.556Z,1009.47
2017-10-23T10:12:58.182Z,1009.53
2017-10-23T10:13:58.797Z,1009.53
2017-10-23T10:14:59.433Z,1009.56
2017-10-23T10:16:00.036Z,1009.58
2017-10-23T10:17:00.661Z,1009.62
2017-10-23T10:18:01.297Z,1009.69
2017-10-23T10:19:01.920Z,1009.62
2017-10-23T10:20:02.541Z,1009.62
2017-10-23T10:21:03.221Z,1009.62
2017-10-23T10:22:03.990Z,1009.64
2017-10-23T10:23:04.622Z,1009.60
2017-10-23T10:24:05.236Z,1009.61
2017-10-23T10:25:05.855Z,1009.64
2017-10-23T10:26:06.484Z,1009.65
2017-10-23T10:27:07.092Z,1009.62
2017-10-23T10:28:07.717Z,1009.61
2017-10-23T10:29:08.336Z,1009.62
2017-10-23T10:30:08.965Z,1009.60
2017-10-23T10:31:09.600Z,1009.62
2017-10-23T10:32:10.240Z,1009.69
2017-10-23T10:33:10.852Z,1009.62
2017-10-23T10:34:11.477Z,1009.77
2017-10-23T10:35:12.107Z,1009.69
2017-10-23T10:36:12.734Z,1009.74
2017-10-23T10:37:13.361Z,1009.74
2017-10-23T10:38:14.014Z,1009.81
2017-10-23T10:39:14.797Z,1009.79
2017-10-23T10:40:16.296Z,1009.85
2017-10-23T10:41:16.922Z,1009.85
2017-10-23T10:42:17.535Z,1009.86
2017-10-23T10:43:18.232Z,1009.78
2017-10-23T10:44:18.795Z,1009.76
2017-10-23T10:45:19.435Z,1009.79
2017-10-23T10:46:20.067Z,1009.83
2017-10-23T10:47:20.706Z,1009.84
2017-10-23T10:48:21.329Z,1009.82
2017-10-23T10:49:21.958Z,1009.76
2017-10-23T10:50:22.580Z,1009.66
2017-10-23T10:51:23.199Z,1009.86
2017-10-23T10:52:23.828Z,1009.88
2017-10-23T10:53:24.450Z,1009.81
2017-10-23T10:54:25.067Z,1009.86
2017-10-23T10:55:25.686Z,1009.83
2017-10-23T10:56:26.337Z,1009.83
2017-10-23T10:57:26.929Z,1009.83
2017-10-23T10:58:27.551Z,1009.82
2017-10-23T10:59:28.171Z,1009.83
2017-10-23T11:00:28.783Z,1009.83
2017-10-23T11:01:29.404Z,1009.82
2017-10-23T11:02:30.045Z,1009.80
2017-10-23T11:03:30.794Z,1009.84
2017-10-23T11:04:31.419Z,1009.86
2017-10-23T11:05:32.054Z,1009.79
2017-10-23T11:06:32.660Z,1009.88
2017-10-23T11:07:33.263Z,1009.78
2017-10-23T11:08:33.884Z,1009.72
2017-10-23T11:09:34.508Z,1009.75
2017-10-23T11:10:35.136Z,1009.77
2017-10-23T11:11:35.760Z,1009.79
2017-10-23T11:12:36.388Z,1009.76
2017-10-23T11:13:37.025Z,1009.75
2017-10-23T11:14:37.652Z,1009.72
2017-10-23T11:15:38.354Z,1009.73
2017-10-23T11:16:39.003Z,1009.79
2017-10-23T11:17:39.607Z,1009.70
2017-10-23T11:18:40.226Z,1009.70
2017-10-23T11:19:40.840Z,1009.66
2017-10-23T11:20:41.447Z,1009.70
2017-10-23T11:21:42.080Z,1009.69
2017-10-23T11:22:42.709Z,1009.69
2017-10-23T11:23:43.337Z,1009.71
2017-10-23T11:24:43.954Z,1009.72
2017-10-23T11:25:44.567Z,1009.62
2017-10-23T11:26:45.196Z,1009.73
2017-10-23T11:27:45.811Z,1009.73
2017-10-23T11:28:46.445Z,1009.71
2017-10-23T11:29:47.069Z,1009.83
2017-10-23T11:30:47.719Z,1009.72
2017-10-23T11:31:48.339Z,1009.81
2017-10-23T11:32:48.965Z,1009.78
2017-10-23T11:33:49.594Z,1009.81
2017-10-23T11:34:50.241Z,1009.80
2017-10-23T11:35:50.862Z,1009.82
2017-10-23T11:36:51.487Z,1009.82
2017-10-23T11:37:52.106Z,1009.82
2017-10-23T11:38:52.730Z,1009.82
2017-10-23T11:39:53.347Z,1009.83
2017-10-23T11:40:53.975Z,1009.82
2017-10-23T11:41:54.588Z,1009.79
2017-10-23T11:42:55.214Z,1009.80
2017-10-23T11:43:55.833Z,1009.81
2017-10-23T11:44:56.457Z,1009.89
2017-10-23T11:45:57.087Z,1009.89
2017-10-23T11:46:57.697Z,1009.85
2017-10-23T11:47:58.310Z,1009.81
2017-10-23T11:48:58.919Z,1009.79
2017-10-23T11:49:59.542Z,1009.83
2017-10-23T11:51:00.150Z,1009.72
2017-10-23T11:52:00.779Z,1009.86
2017-10-23T11:53:01.377Z,1009.83
2017-10-23T11:54:02.012Z,1009.90
2017-10-23T11:55:02.642Z,1009.80
2017-10-23T11:56:03.265Z,1009.81
2017-10-23T11:57:03.893Z,1009.77
2017-10-23T11:58:04.514Z,1009.77
2017-10-23T11:59:05.129Z,1009.82
2017-10-23T12:00:05.749Z,1009.79
2017-10-23T12:01:06.379Z,1009.73
2017-10-23T12:02:07.303Z,1009.80
2017-10-23T12:03:07.885Z,1009.80
2017-10-23T12:04:08.517Z,1009.79
2017-10-23T12:05:09.137Z,1009.74
2017-10-23T12:06:09.772Z,1009.81
2017-10-23T12:07:10.374Z,1009.72
2017-10-23T12:08:10.986Z,1009.76
2017-10-23T12:09:11.626Z,1009.79
2017-10-23T12:10:12.248Z,1009.78
2017-10-23T12:11:12.862Z,1009.82
2017-10-23T12:12:13.504Z,1009.80
2017-10-23T12:13:14.115Z,1009.74